sensor_id;sensor_type;location;lat;lon;timestamp;temperature;humidity
11491;DHT22;5802;52.832;4.758;2024-02-21T00:01:27;25.20;41.50
11491;DHT22;5802;52.832;4.758;2024-02-21T00:03:54;25.20;41.60
11491;DHT22;5802;52.832;4.758;2024-02-21T00:06:21;25.20;41.60
11491;DHT22;5802;52.832;4.758;2024-02-21T00:08:49;25.20;41.50
11491;DHT22;5802;52.832;4.758;2024-02-21T00:11:15;25.20;41.60
11491;DHT22;5802;52.832;4.758;2024-02-21T00:13:42;25.20;41.60
11491;DHT22;5802;52.832;4.758;2024-02-21T00:16:09;25.20;41.60
11491;DHT22;5802;52.832;4.758;2024-02-21T00:18:37;25.20;41.60
11491;DHT22;5802;52.832;4.758;2024-02-21T00:21:04;25.20;41.60
11491;DHT22;5802;52.832;4.758;2024-02-21T00:23:31;25.20;41.60
11491;DHT22;5802;52.832;4.758;2024-02-21T00:25:59;25.10;41.50
11491;DHT22;5802;52.832;4.758;2024-02-21T00:28:26;25.20;41.50
11491;DHT22;5802;52.832;4.758;2024-02-21T00:30:52;25.20;41.50
11491;DHT22;5802;52.832;4.758;2024-02-21T00:33:20;25.20;41.50
11491;DHT22;5802;52.832;4.758;2024-02-21T00:35:47;25.10;41.50
11491;DHT22;5802;52.832;4.758;2024-02-21T00:38:14;25.20;41.50
11491;DHT22;5802;52.832;4.758;2024-02-21T00:40:40;25.20;41.60
11491;DHT22;5802;52.832;4.758;2024-02-21T00:43:09;25.10;41.50
11491;DHT22;5802;52.832;4.758;2024-02-21T00:45:37;25.10;41.50
11491;DHT22;5802;52.832;4.758;2024-02-21T00:48:04;25.10;41.50
11491;DHT22;5802;52.832;4.758;2024-02-21T00:50:31;25.10;41.50
11491;DHT22;5802;52.832;4.758;2024-02-21T00:52:58;25.10;41.50
11491;DHT22;5802;52.832;4.758;2024-02-21T00:55:25;25.10;41.50
11491;DHT22;5802;52.832;4.758;2024-02-21T00:57:54;25.10;41.50
11491;DHT22;5802;52.832;4.758;2024-02-21T01:00:22;25.10;41.50
11491;DHT22;5802;52.832;4.758;2024-02-21T01:02:49;25.10;41.60
11491;DHT22;5802;52.832;4.758;2024-02-21T01:05:16;25.10;41.50
11491;DHT22;5802;52.832;4.758;2024-02-21T01:07:43;25.10;41.50
11491;DHT22;5802;52.832;4.758;2024-02-21T01:10:09;25.10;41.60
11491;DHT22;5802;52.832;4.758;2024-02-21T01:12:36;25.10;41.60
11491;DHT22;5802;52.832;4.758;2024-02-21T01:15:04;25.10;41.50
11491;DHT22;5802;52.832;4.758;2024-02-21T01:17:33;25.10;41.50
11491;DHT22;5802;52.832;4.758;2024-02-21T01:19:59;25.10;41.60
11491;DHT22;5802;52.832;4.758;2024-02-21T01:22:26;25.10;41.50
11491;DHT22;5802;52.832;4.758;2024-02-21T01:24:54;25.10;41.50
11491;DHT22;5802;52.832;4.758;2024-02-21T01:27:21;25.10;41.50
11491;DHT22;5802;52.832;4.758;2024-02-21T01:29:47;25.10;41.50
11491;DHT22;5802;52.832;4.758;2024-02-21T01:32:15;25.10;42.20
11491;DHT22;5802;52.832;4.758;2024-02-21T01:34:43;25.10;41.60
11491;DHT22;5802;52.832;4.758;2024-02-21T01:37:10;25.10;41.50
11491;DHT22;5802;52.832;4.758;2024-02-21T01:39:37;25.10;41.50
11491;DHT22;5802;52.832;4.758;2024-02-21T01:42:04;25.10;41.50
11491;DHT22;5802;52.832;4.758;2024-02-21T01:44:31;25.10;41.50
11491;DHT22;5802;52.832;4.758;2024-02-21T01:46:58;25.10;41.50
11491;DHT22;5802;52.832;4.758;2024-02-21T01:49:26;25.10;41.50
11491;DHT22;5802;52.832;4.758;2024-02-21T01:51:54;25.10;41.50
11491;DHT22;5802;52.832;4.758;2024-02-21T01:54:22;25.10;41.50
11491;DHT22;5802;52.832;4.758;2024-02-21T01:56:49;25.10;41.50
11491;DHT22;5802;52.832;4.758;2024-02-21T01:59:17;25.10;41.60
11491;DHT22;5802;52.832;4.758;2024-02-21T02:01:46;25.10;41.60
11491;DHT22;5802;52.832;4.758;2024-02-21T02:04:14;25.10;41.60
11491;DHT22;5802;52.832;4.758;2024-02-21T02:06:41;25.10;41.60
11491;DHT22;5802;52.832;4.758;2024-02-21T02:09:09;25.10;41.50
11491;DHT22;5802;52.832;4.758;2024-02-21T02:11:36;25.10;41.60
11491;DHT22;5802;52.832;4.758;2024-02-21T02:14:03;25.10;41.50
11491;DHT22;5802;52.832;4.758;2024-02-21T02:16:30;25.10;41.50
11491;DHT22;5802;52.832;4.758;2024-02-21T02:18:57;25.10;41.50
11491;DHT22;5802;52.832;4.758;2024-02-21T02:21:29;25.10;41.50
11491;DHT22;5802;52.832;4.758;2024-02-21T02:23:58;25.00;41.50
11491;DHT22;5802;52.832;4.758;2024-02-21T02:26:25;25.10;41.60
11491;DHT22;5802;52.832;4.758;2024-02-21T02:28:55;25.10;41.60
11491;DHT22;5802;52.832;4.758;2024-02-21T02:31:22;25.10;41.50
11491;DHT22;5802;52.832;4.758;2024-02-21T02:33:49;25.00;41.50
11491;DHT22;5802;52.832;4.758;2024-02-21T02:36:16;25.10;41.60
11491;DHT22;5802;52.832;4.758;2024-02-21T02:38:43;25.10;41.60
11491;DHT22;5802;52.832;4.758;2024-02-21T02:41:12;25.00;41.50
11491;DHT22;5802;52.832;4.758;2024-02-21T02:43:38;25.00;41.50
11491;DHT22;5802;52.832;4.758;2024-02-21T02:46:05;25.00;41.50
11491;DHT22;5802;52.832;4.758;2024-02-21T02:48:32;25.00;41.50
11491;DHT22;5802;52.832;4.758;2024-02-21T02:50:59;25.00;41.50
11491;DHT22;5802;52.832;4.758;2024-02-21T02:53:26;25.00;41.50
11491;DHT22;5802;52.832;4.758;2024-02-21T02:55:53;25.00;41.50
11491;DHT22;5802;52.832;4.758;2024-02-21T02:58:21;25.00;41.50
11491;DHT22;5802;52.832;4.758;2024-02-21T03:00:48;25.00;41.50
11491;DHT22;5802;52.832;4.758;2024-02-21T03:03:15;25.00;41.50
11491;DHT22;5802;52.832;4.758;2024-02-21T03:05:42;25.00;41.60
11491;DHT22;5802;52.832;4.758;2024-02-21T03:08:09;25.00;41.60
11491;DHT22;5802;52.832;4.758;2024-02-21T03:10:36;25.00;41.60
11491;DHT22;5802;52.832;4.758;2024-02-21T03:13:03;25.00;42.30
11491;DHT22;5802;52.832;4.758;2024-02-21T03:15:31;25.00;41.60
11491;DHT22;5802;52.832;4.758;2024-02-21T03:17:58;25.00;41.60
11491;DHT22;5802;52.832;4.758;2024-02-21T03:20:25;25.00;41.60
11491;DHT22;5802;52.832;4.758;2024-02-21T03:22:52;25.00;42.30
11491;DHT22;5802;52.832;4.758;2024-02-21T03:25:19;25.00;41.60
11491;DHT22;5802;52.832;4.758;2024-02-21T03:27:46;25.00;41.70
11491;DHT22;5802;52.832;4.758;2024-02-21T03:30:13;25.00;41.70
11491;DHT22;5802;52.832;4.758;2024-02-21T03:32:41;25.00;41.70
11491;DHT22;5802;52.832;4.758;2024-02-21T03:35:08;25.00;41.70
11491;DHT22;5802;52.832;4.758;2024-02-21T03:37:35;25.00;41.70
11491;DHT22;5802;52.832;4.758;2024-02-21T03:40:02;25.00;41.70
11491;DHT22;5802;52.832;4.758;2024-02-21T03:42:29;25.00;41.70
11491;DHT22;5802;52.832;4.758;2024-02-21T03:44:57;25.00;41.70
11491;DHT22;5802;52.832;4.758;2024-02-21T03:47:23;25.00;41.70
11491;DHT22;5802;52.832;4.758;2024-02-21T03:49:52;25.00;41.70
11491;DHT22;5802;52.832;4.758;2024-02-21T03:52:18;25.00;41.70
11491;DHT22;5802;52.832;4.758;2024-02-21T03:54:45;25.00;41.70
11491;DHT22;5802;52.832;4.758;2024-02-21T03:57:12;25.00;41.70
11491;DHT22;5802;52.832;4.758;2024-02-21T03:59:39;25.00;41.70
11491;DHT22;5802;52.832;4.758;2024-02-21T04:02:06;25.00;41.70
11491;DHT22;5802;52.832;4.758;2024-02-21T04:04:34;25.00;41.70
11491;DHT22;5802;52.832;4.758;2024-02-21T04:07:04;25.00;42.40
11491;DHT22;5802;52.832;4.758;2024-02-21T04:09:32;25.00;41.70
11491;DHT22;5802;52.832;4.758;2024-02-21T04:11:59;25.00;41.70
11491;DHT22;5802;52.832;4.758;2024-02-21T04:14:26;25.00;41.70
11491;DHT22;5802;52.832;4.758;2024-02-21T04:16:53;25.00;41.70
11491;DHT22;5802;52.832;4.758;2024-02-21T04:19:20;25.00;41.80
11491;DHT22;5802;52.832;4.758;2024-02-21T04:21:47;25.00;41.70
11491;DHT22;5802;52.832;4.758;2024-02-21T04:24:15;25.00;41.70
11491;DHT22;5802;52.832;4.758;2024-02-21T04:26:42;25.00;41.70
11491;DHT22;5802;52.832;4.758;2024-02-21T04:29:09;25.00;41.60
11491;DHT22;5802;52.832;4.758;2024-02-21T04:31:36;25.00;41.60
11491;DHT22;5802;52.832;4.758;2024-02-21T04:34:02;25.00;41.50
11491;DHT22;5802;52.832;4.758;2024-02-21T04:36:29;25.00;41.50
11491;DHT22;5802;52.832;4.758;2024-02-21T04:38:56;25.00;41.60
11491;DHT22;5802;52.832;4.758;2024-02-21T04:41:24;25.00;41.60
11491;DHT22;5802;52.832;4.758;2024-02-21T04:43:51;25.00;41.60
11491;DHT22;5802;52.832;4.758;2024-02-21T04:46:18;25.00;41.60
11491;DHT22;5802;52.832;4.758;2024-02-21T04:48:45;25.00;41.70
11491;DHT22;5802;52.832;4.758;2024-02-21T04:51:12;25.00;41.70
11491;DHT22;5802;52.832;4.758;2024-02-21T04:53:39;25.00;41.70
11491;DHT22;5802;52.832;4.758;2024-02-21T04:56:06;25.00;41.80
11491;DHT22;5802;52.832;4.758;2024-02-21T04:58:37;25.00;41.80
11491;DHT22;5802;52.832;4.758;2024-02-21T05:01:04;25.00;41.80
11491;DHT22;5802;52.832;4.758;2024-02-21T05:03:31;25.00;41.80
11491;DHT22;5802;52.832;4.758;2024-02-21T05:05:59;25.00;41.80
11491;DHT22;5802;52.832;4.758;2024-02-21T05:08:26;25.00;41.80
11491;DHT22;5802;52.832;4.758;2024-02-21T05:10:53;25.00;41.80
11491;DHT22;5802;52.832;4.758;2024-02-21T05:13:20;25.00;41.80
11491;DHT22;5802;52.832;4.758;2024-02-21T05:15:48;25.00;41.80
11491;DHT22;5802;52.832;4.758;2024-02-21T05:18:15;25.00;41.80
11491;DHT22;5802;52.832;4.758;2024-02-21T05:20:42;25.00;41.80
11491;DHT22;5802;52.832;4.758;2024-02-21T05:23:08;25.00;41.70
11491;DHT22;5802;52.832;4.758;2024-02-21T05:25:36;25.00;41.80
11491;DHT22;5802;52.832;4.758;2024-02-21T05:28:03;25.00;41.80
11491;DHT22;5802;52.832;4.758;2024-02-21T05:30:31;25.00;41.70
11491;DHT22;5802;52.832;4.758;2024-02-21T05:33:04;25.00;41.80
11491;DHT22;5802;52.832;4.758;2024-02-21T05:35:31;25.00;41.80
11491;DHT22;5802;52.832;4.758;2024-02-21T05:37:57;25.00;41.80
11491;DHT22;5802;52.832;4.758;2024-02-21T05:40:25;25.00;41.80
11491;DHT22;5802;52.832;4.758;2024-02-21T05:42:51;25.00;41.80
11491;DHT22;5802;52.832;4.758;2024-02-21T05:45:20;25.00;41.70
11491;DHT22;5802;52.832;4.758;2024-02-21T05:47:47;25.00;41.80
11491;DHT22;5802;52.832;4.758;2024-02-21T05:50:15;25.00;41.80
11491;DHT22;5802;52.832;4.758;2024-02-21T05:52:42;25.00;41.80
11491;DHT22;5802;52.832;4.758;2024-02-21T05:55:09;25.00;41.70
11491;DHT22;5802;52.832;4.758;2024-02-21T05:57:36;25.00;41.70
11491;DHT22;5802;52.832;4.758;2024-02-21T06:00:05;25.00;41.80
11491;DHT22;5802;52.832;4.758;2024-02-21T06:02:32;25.00;41.80
11491;DHT22;5802;52.832;4.758;2024-02-21T06:04:59;25.00;41.70
11491;DHT22;5802;52.832;4.758;2024-02-21T06:07:27;25.00;41.80
11491;DHT22;5802;52.832;4.758;2024-02-21T06:09:54;25.00;42.40
11491;DHT22;5802;52.832;4.758;2024-02-21T06:12:21;25.00;42.40
11491;DHT22;5802;52.832;4.758;2024-02-21T06:14:47;25.00;41.90
11491;DHT22;5802;52.832;4.758;2024-02-21T06:17:14;25.00;41.90
11491;DHT22;5802;52.832;4.758;2024-02-21T06:19:43;25.00;41.90
11491;DHT22;5802;52.832;4.758;2024-02-21T06:22:10;25.00;41.90
11491;DHT22;5802;52.832;4.758;2024-02-21T06:24:38;25.00;41.90
11491;DHT22;5802;52.832;4.758;2024-02-21T06:27:06;25.00;42.50
11491;DHT22;5802;52.832;4.758;2024-02-21T06:29:33;25.00;42.00
11491;DHT22;5802;52.832;4.758;2024-02-21T06:32:00;25.00;41.90
11491;DHT22;5802;52.832;4.758;2024-02-21T06:34:27;25.00;42.00
11491;DHT22;5802;52.832;4.758;2024-02-21T06:36:54;25.00;41.90
11491;DHT22;5802;52.832;4.758;2024-02-21T06:39:21;25.00;41.90
11491;DHT22;5802;52.832;4.758;2024-02-21T06:41:50;25.00;41.90
11491;DHT22;5802;52.832;4.758;2024-02-21T06:44:18;25.00;41.90
11491;DHT22;5802;52.832;4.758;2024-02-21T06:46:45;25.00;41.90
11491;DHT22;5802;52.832;4.758;2024-02-21T06:49:12;25.00;41.90
11491;DHT22;5802;52.832;4.758;2024-02-21T06:51:41;25.00;41.80
11491;DHT22;5802;52.832;4.758;2024-02-21T06:54:08;25.00;41.80
11491;DHT22;5802;52.832;4.758;2024-02-21T06:56:36;25.00;41.80
11491;DHT22;5802;52.832;4.758;2024-02-21T06:59:05;25.00;41.80
11491;DHT22;5802;52.832;4.758;2024-02-21T07:01:32;25.00;41.80
11491;DHT22;5802;52.832;4.758;2024-02-21T07:03:59;25.00;41.80
11491;DHT22;5802;52.832;4.758;2024-02-21T07:06:25;25.00;41.80
11491;DHT22;5802;52.832;4.758;2024-02-21T07:08:52;25.00;41.80
11491;DHT22;5802;52.832;4.758;2024-02-21T07:11:19;25.00;41.80
11491;DHT22;5802;52.832;4.758;2024-02-21T07:13:46;25.00;41.70
11491;DHT22;5802;52.832;4.758;2024-02-21T07:16:14;25.00;41.70
11491;DHT22;5802;52.832;4.758;2024-02-21T07:18:41;25.00;41.70
11491;DHT22;5802;52.832;4.758;2024-02-21T07:21:08;25.00;41.70
11491;DHT22;5802;52.832;4.758;2024-02-21T07:23:35;25.00;41.70
11491;DHT22;5802;52.832;4.758;2024-02-21T07:26:02;25.10;41.70
11491;DHT22;5802;52.832;4.758;2024-02-21T07:28:29;25.10;41.70
11491;DHT22;5802;52.832;4.758;2024-02-21T07:30:56;25.10;41.70
11491;DHT22;5802;52.832;4.758;2024-02-21T07:33:24;25.00;41.60
11491;DHT22;5802;52.832;4.758;2024-02-21T07:35:51;25.00;41.60
11491;DHT22;5802;52.832;4.758;2024-02-21T07:38:18;25.10;41.60
11491;DHT22;5802;52.832;4.758;2024-02-21T07:40:45;25.00;41.50
11491;DHT22;5802;52.832;4.758;2024-02-21T07:43:12;25.10;41.60
11491;DHT22;5802;52.832;4.758;2024-02-21T07:45:39;25.10;41.60
11491;DHT22;5802;52.832;4.758;2024-02-21T07:48:06;25.10;41.60
11491;DHT22;5802;52.832;4.758;2024-02-21T07:50:34;25.10;41.60
11491;DHT22;5802;52.832;4.758;2024-02-21T07:53:01;25.10;41.60
11491;DHT22;5802;52.832;4.758;2024-02-21T07:55:28;25.10;41.60
11491;DHT22;5802;52.832;4.758;2024-02-21T07:57:55;25.10;41.60
11491;DHT22;5802;52.832;4.758;2024-02-21T08:00:22;25.10;41.60
11491;DHT22;5802;52.832;4.758;2024-02-21T08:02:49;25.10;41.60
11491;DHT22;5802;52.832;4.758;2024-02-21T08:05:17;25.10;41.60
11491;DHT22;5802;52.832;4.758;2024-02-21T08:07:45;25.10;41.60
11491;DHT22;5802;52.832;4.758;2024-02-21T08:10:12;25.10;42.30
11491;DHT22;5802;52.832;4.758;2024-02-21T08:12:39;25.10;41.60
11491;DHT22;5802;52.832;4.758;2024-02-21T08:15:06;25.10;41.70
11491;DHT22;5802;52.832;4.758;2024-02-21T08:17:34;25.10;41.70
11491;DHT22;5802;52.832;4.758;2024-02-21T08:20:00;25.10;41.80
11491;DHT22;5802;52.832;4.758;2024-02-21T08:22:28;25.10;41.80
11491;DHT22;5802;52.832;4.758;2024-02-21T08:24:56;25.10;41.80
11491;DHT22;5802;52.832;4.758;2024-02-21T08:27:23;25.10;41.80
11491;DHT22;5802;52.832;4.758;2024-02-21T08:29:50;25.10;41.80
11491;DHT22;5802;52.832;4.758;2024-02-21T08:32:17;25.10;41.80
11491;DHT22;5802;52.832;4.758;2024-02-21T08:34:44;25.10;41.80
11491;DHT22;5802;52.832;4.758;2024-02-21T08:37:11;25.10;41.80
11491;DHT22;5802;52.832;4.758;2024-02-21T08:39:38;25.20;41.90
11491;DHT22;5802;52.832;4.758;2024-02-21T08:42:06;25.10;41.80
11491;DHT22;5802;52.832;4.758;2024-02-21T08:44:34;25.20;41.80
11491;DHT22;5802;52.832;4.758;2024-02-21T08:47:01;25.20;41.90
11491;DHT22;5802;52.832;4.758;2024-02-21T08:49:29;25.20;42.20
11491;DHT22;5802;52.832;4.758;2024-02-21T08:51:56;25.20;42.30
11491;DHT22;5802;52.832;4.758;2024-02-21T08:54:23;25.20;42.50
11491;DHT22;5802;52.832;4.758;2024-02-21T08:56:50;25.20;42.60
11491;DHT22;5802;52.832;4.758;2024-02-21T08:59:19;25.20;42.40
11491;DHT22;5802;52.832;4.758;2024-02-21T09:01:46;25.30;42.40
11491;DHT22;5802;52.832;4.758;2024-02-21T09:04:13;25.30;42.30
11491;DHT22;5802;52.832;4.758;2024-02-21T09:06:40;25.30;42.20
11491;DHT22;5802;52.832;4.758;2024-02-21T09:09:08;25.30;42.20
11491;DHT22;5802;52.832;4.758;2024-02-21T09:11:35;25.30;42.10
11491;DHT22;5802;52.832;4.758;2024-02-21T09:14:02;25.30;42.10
11491;DHT22;5802;52.832;4.758;2024-02-21T09:16:32;25.30;42.10
11491;DHT22;5802;52.832;4.758;2024-02-21T09:18:59;25.30;42.00
11491;DHT22;5802;52.832;4.758;2024-02-21T09:21:26;25.30;42.00
11491;DHT22;5802;52.832;4.758;2024-02-21T09:23:53;25.30;41.90
11491;DHT22;5802;52.832;4.758;2024-02-21T09:26:20;25.30;41.90
11491;DHT22;5802;52.832;4.758;2024-02-21T09:28:47;25.30;41.90
11491;DHT22;5802;52.832;4.758;2024-02-21T09:31:14;25.30;42.40
11491;DHT22;5802;52.832;4.758;2024-02-21T09:33:42;25.30;41.80
11491;DHT22;5802;52.832;4.758;2024-02-21T09:36:09;25.30;41.70
11491;DHT22;5802;52.832;4.758;2024-02-21T09:38:36;25.30;41.70
11491;DHT22;5802;52.832;4.758;2024-02-21T09:41:11;25.40;41.70
11491;DHT22;5802;52.832;4.758;2024-02-21T09:43:41;25.30;41.70
11491;DHT22;5802;52.832;4.758;2024-02-21T09:46:15;25.30;41.70
11491;DHT22;5802;52.832;4.758;2024-02-21T09:48:57;25.30;41.60
11491;DHT22;5802;52.832;4.758;2024-02-21T09:51:27;25.40;41.60
11491;DHT22;5802;52.832;4.758;2024-02-21T09:53:56;25.40;41.50
11491;DHT22;5802;52.832;4.758;2024-02-21T09:56:24;25.40;41.50
11491;DHT22;5802;52.832;4.758;2024-02-21T09:58:51;25.40;41.40
11491;DHT22;5802;52.832;4.758;2024-02-21T10:01:17;25.40;42.00
11491;DHT22;5802;52.832;4.758;2024-02-21T10:03:46;25.40;41.20
11491;DHT22;5802;52.832;4.758;2024-02-21T10:06:13;25.40;41.00
11491;DHT22;5802;52.832;4.758;2024-02-21T10:08:42;25.40;41.00
11491;DHT22;5802;52.832;4.758;2024-02-21T10:11:08;25.50;41.20
11491;DHT22;5802;52.832;4.758;2024-02-21T10:13:35;25.40;41.20
11491;DHT22;5802;52.832;4.758;2024-02-21T10:16:04;25.50;41.20
11491;DHT22;5802;52.832;4.758;2024-02-21T10:18:32;25.50;41.20
11491;DHT22;5802;52.832;4.758;2024-02-21T10:21:05;25.40;41.20
11491;DHT22;5802;52.832;4.758;2024-02-21T10:23:45;25.40;41.20
11491;DHT22;5802;52.832;4.758;2024-02-21T10:26:12;25.50;41.30
11491;DHT22;5802;52.832;4.758;2024-02-21T10:28:38;25.50;41.30
11491;DHT22;5802;52.832;4.758;2024-02-21T10:31:08;25.40;41.30
11491;DHT22;5802;52.832;4.758;2024-02-21T10:33:34;25.40;41.30
11491;DHT22;5802;52.832;4.758;2024-02-21T10:36:10;25.50;41.40
11491;DHT22;5802;52.832;4.758;2024-02-21T10:38:37;25.40;41.30
11491;DHT22;5802;52.832;4.758;2024-02-21T10:41:05;25.50;41.30
11491;DHT22;5802;52.832;4.758;2024-02-21T10:43:41;25.50;41.40
11491;DHT22;5802;52.832;4.758;2024-02-21T10:46:08;25.50;41.90
11491;DHT22;5802;52.832;4.758;2024-02-21T10:48:42;25.50;41.30
11491;DHT22;5802;52.832;4.758;2024-02-21T10:51:15;25.50;41.20
11491;DHT22;5802;52.832;4.758;2024-02-21T10:53:47;25.50;41.20
11491;DHT22;5802;52.832;4.758;2024-02-21T10:56:21;25.50;41.20
11491;DHT22;5802;52.832;4.758;2024-02-21T10:58:49;25.50;40.90
11491;DHT22;5802;52.832;4.758;2024-02-21T11:01:17;25.50;40.70
11491;DHT22;5802;52.832;4.758;2024-02-21T11:03:46;25.50;40.70
11491;DHT22;5802;52.832;4.758;2024-02-21T11:06:16;25.50;40.70
11491;DHT22;5802;52.832;4.758;2024-02-21T11:08:43;25.50;40.70
11491;DHT22;5802;52.832;4.758;2024-02-21T11:11:12;25.50;40.90
11491;DHT22;5802;52.832;4.758;2024-02-21T11:13:43;25.40;41.00
11491;DHT22;5802;52.832;4.758;2024-02-21T11:16:12;25.50;41.20
11491;DHT22;5802;52.832;4.758;2024-02-21T11:18:47;25.50;41.30
11491;DHT22;5802;52.832;4.758;2024-02-21T11:21:16;25.40;41.40
11491;DHT22;5802;52.832;4.758;2024-02-21T11:23:42;25.40;41.50
11491;DHT22;5802;52.832;4.758;2024-02-21T11:26:10;25.40;41.60
11491;DHT22;5802;52.832;4.758;2024-02-21T11:28:37;25.40;41.60
11491;DHT22;5802;52.832;4.758;2024-02-21T11:31:08;25.40;41.70
11491;DHT22;5802;52.832;4.758;2024-02-21T11:33:35;25.40;41.60
11491;DHT22;5802;52.832;4.758;2024-02-21T11:36:02;25.40;41.70
11491;DHT22;5802;52.832;4.758;2024-02-21T11:38:31;25.40;41.90
11491;DHT22;5802;52.832;4.758;2024-02-21T11:40:58;25.40;42.00
11491;DHT22;5802;52.832;4.758;2024-02-21T11:43:25;25.40;42.00
11491;DHT22;5802;52.832;4.758;2024-02-21T11:45:59;25.40;41.90
11491;DHT22;5802;52.832;4.758;2024-02-21T11:48:26;25.40;41.90
11491;DHT22;5802;52.832;4.758;2024-02-21T11:50:54;25.40;41.90
11491;DHT22;5802;52.832;4.758;2024-02-21T11:53:25;25.40;41.90
11491;DHT22;5802;52.832;4.758;2024-02-21T11:56:00;25.40;41.80
11491;DHT22;5802;52.832;4.758;2024-02-21T11:58:28;25.40;41.70
11491;DHT22;5802;52.832;4.758;2024-02-21T12:00:56;25.40;41.60
11491;DHT22;5802;52.832;4.758;2024-02-21T12:03:24;25.40;41.60
11491;DHT22;5802;52.832;4.758;2024-02-21T12:05:51;25.40;41.50
11491;DHT22;5802;52.832;4.758;2024-02-21T12:08:22;25.40;41.50
11491;DHT22;5802;52.832;4.758;2024-02-21T12:10:48;25.40;41.50
11491;DHT22;5802;52.832;4.758;2024-02-21T12:13:22;25.40;41.50
11491;DHT22;5802;52.832;4.758;2024-02-21T12:15:49;25.40;41.40
11491;DHT22;5802;52.832;4.758;2024-02-21T12:18:16;25.40;41.40
11491;DHT22;5802;52.832;4.758;2024-02-21T12:20:43;25.40;41.30
11491;DHT22;5802;52.832;4.758;2024-02-21T12:23:12;25.40;41.40
11491;DHT22;5802;52.832;4.758;2024-02-21T12:25:39;25.40;41.30
11491;DHT22;5802;52.832;4.758;2024-02-21T12:28:06;25.40;41.30
11491;DHT22;5802;52.832;4.758;2024-02-21T12:30:34;25.40;41.30
11491;DHT22;5802;52.832;4.758;2024-02-21T12:33:05;25.40;41.20
11491;DHT22;5802;52.832;4.758;2024-02-21T12:35:32;25.40;41.20
11491;DHT22;5802;52.832;4.758;2024-02-21T12:37:59;25.40;41.10
11491;DHT22;5802;52.832;4.758;2024-02-21T12:40:27;25.40;41.00
11491;DHT22;5802;52.832;4.758;2024-02-21T12:42:58;25.50;41.20
11491;DHT22;5802;52.832;4.758;2024-02-21T12:45:25;25.40;41.00
11491;DHT22;5802;52.832;4.758;2024-02-21T12:47:54;25.50;41.70
11491;DHT22;5802;52.832;4.758;2024-02-21T12:50:20;25.50;41.00
11491;DHT22;5802;52.832;4.758;2024-02-21T12:52:48;25.50;41.00
11491;DHT22;5802;52.832;4.758;2024-02-21T12:55:16;25.50;41.40
11491;DHT22;5802;52.832;4.758;2024-02-21T12:57:43;25.50;40.80
11491;DHT22;5802;52.832;4.758;2024-02-21T13:00:10;25.50;40.80
11491;DHT22;5802;52.832;4.758;2024-02-21T13:02:37;25.50;40.70
11491;DHT22;5802;52.832;4.758;2024-02-21T13:05:06;25.50;40.70
11491;DHT22;5802;52.832;4.758;2024-02-21T13:07:33;25.50;40.60
11491;DHT22;5802;52.832;4.758;2024-02-21T13:10:00;25.50;40.70
11491;DHT22;5802;52.832;4.758;2024-02-21T13:12:29;25.50;40.70
11491;DHT22;5802;52.832;4.758;2024-02-21T13:14:56;25.50;40.60
11491;DHT22;5802;52.832;4.758;2024-02-21T13:17:23;25.50;40.50
11491;DHT22;5802;52.832;4.758;2024-02-21T13:19:55;25.50;40.40
11491;DHT22;5802;52.832;4.758;2024-02-21T13:22:23;25.50;40.50
11491;DHT22;5802;52.832;4.758;2024-02-21T13:24:52;25.50;40.40
11491;DHT22;5802;52.832;4.758;2024-02-21T13:27:19;25.50;40.50
11491;DHT22;5802;52.832;4.758;2024-02-21T13:29:46;25.50;40.40
11491;DHT22;5802;52.832;4.758;2024-02-21T13:32:13;25.50;40.40
11491;DHT22;5802;52.832;4.758;2024-02-21T13:34:41;25.50;40.40
11491;DHT22;5802;52.832;4.758;2024-02-21T13:37:08;25.50;40.40
11491;DHT22;5802;52.832;4.758;2024-02-21T13:39:37;25.50;40.40
11491;DHT22;5802;52.832;4.758;2024-02-21T13:42:04;25.50;40.40
11491;DHT22;5802;52.832;4.758;2024-02-21T13:44:32;25.50;40.30
11491;DHT22;5802;52.832;4.758;2024-02-21T13:47:00;25.50;40.40
11491;DHT22;5802;52.832;4.758;2024-02-21T13:49:26;25.50;40.30
11491;DHT22;5802;52.832;4.758;2024-02-21T13:51:54;25.50;40.30
11491;DHT22;5802;52.832;4.758;2024-02-21T13:54:21;25.50;40.30
11491;DHT22;5802;52.832;4.758;2024-02-21T13:56:49;25.50;40.30
11491;DHT22;5802;52.832;4.758;2024-02-21T13:59:16;25.50;40.30
11491;DHT22;5802;52.832;4.758;2024-02-21T14:01:43;25.50;40.30
11491;DHT22;5802;52.832;4.758;2024-02-21T14:04:10;25.40;40.30
11491;DHT22;5802;52.832;4.758;2024-02-21T14:06:37;25.40;40.30
11491;DHT22;5802;52.832;4.758;2024-02-21T14:09:08;25.50;40.30
11491;DHT22;5802;52.832;4.758;2024-02-21T14:11:35;25.40;40.30
11491;DHT22;5802;52.832;4.758;2024-02-21T14:14:04;25.40;40.30
11491;DHT22;5802;52.832;4.758;2024-02-21T14:16:32;25.40;40.30
11491;DHT22;5802;52.832;4.758;2024-02-21T14:18:59;25.40;40.30
11491;DHT22;5802;52.832;4.758;2024-02-21T14:21:26;25.40;40.30
11491;DHT22;5802;52.832;4.758;2024-02-21T14:23:54;25.40;40.30
11491;DHT22;5802;52.832;4.758;2024-02-21T14:26:22;25.40;40.30
11491;DHT22;5802;52.832;4.758;2024-02-21T14:28:49;25.30;40.30
11491;DHT22;5802;52.832;4.758;2024-02-21T14:31:17;25.40;40.40
11491;DHT22;5802;52.832;4.758;2024-02-21T14:33:44;25.30;41.00
11491;DHT22;5802;52.832;4.758;2024-02-21T14:36:11;25.40;40.40
11491;DHT22;5802;52.832;4.758;2024-02-21T14:38:38;25.30;40.30
11491;DHT22;5802;52.832;4.758;2024-02-21T14:41:06;25.30;40.40
11491;DHT22;5802;52.832;4.758;2024-02-21T14:43:33;25.30;40.40
11491;DHT22;5802;52.832;4.758;2024-02-21T14:46:01;25.30;40.50
11491;DHT22;5802;52.832;4.758;2024-02-21T14:48:31;25.30;40.50
11491;DHT22;5802;52.832;4.758;2024-02-21T14:50:58;25.30;40.50
11491;DHT22;5802;52.832;4.758;2024-02-21T14:53:25;25.30;40.70
11491;DHT22;5802;52.832;4.758;2024-02-21T14:55:52;25.30;40.60
11491;DHT22;5802;52.832;4.758;2024-02-21T14:58:19;25.30;40.60
11491;DHT22;5802;52.832;4.758;2024-02-21T15:00:46;25.30;40.70
11491;DHT22;5802;52.832;4.758;2024-02-21T15:03:13;25.20;40.60
11491;DHT22;5802;52.832;4.758;2024-02-21T15:05:42;25.20;40.60
11491;DHT22;5802;52.832;4.758;2024-02-21T15:08:09;25.20;40.60
11491;DHT22;5802;52.832;4.758;2024-02-21T15:10:37;25.20;40.60
11491;DHT22;5802;52.832;4.758;2024-02-21T15:13:04;25.20;40.60
11491;DHT22;5802;52.832;4.758;2024-02-21T15:15:31;25.20;40.60
11491;DHT22;5802;52.832;4.758;2024-02-21T15:17:58;25.20;40.70
11491;DHT22;5802;52.832;4.758;2024-02-21T15:20:25;25.20;40.70
11491;DHT22;5802;52.832;4.758;2024-02-21T15:22:55;25.20;40.80
11491;DHT22;5802;52.832;4.758;2024-02-21T15:25:21;25.20;40.80
11491;DHT22;5802;52.832;4.758;2024-02-21T15:27:48;25.10;40.80
11491;DHT22;5802;52.832;4.758;2024-02-21T15:30:15;25.10;40.90
11491;DHT22;5802;52.832;4.758;2024-02-21T15:32:42;25.10;40.90
11491;DHT22;5802;52.832;4.758;2024-02-21T15:35:10;25.10;41.00
11491;DHT22;5802;52.832;4.758;2024-02-21T15:37:37;25.10;41.10
11491;DHT22;5802;52.832;4.758;2024-02-21T15:40:06;25.10;41.80
11491;DHT22;5802;52.832;4.758;2024-02-21T15:42:34;25.10;41.20
11491;DHT22;5802;52.832;4.758;2024-02-21T15:45:00;25.10;41.20
11491;DHT22;5802;52.832;4.758;2024-02-21T15:47:30;25.10;41.30